Time;durP1;ratioP1;P1;durP2;ratioP2;P2;SDS_P1;SDS_P2;PMS_P1;PMS_P2;Temp;Humidity;BMP_temperature;BMP_pressure;BME280_temperature;BME280_humidity;BME280_pressure;Samples;Min_cycle;Max_cycle;Signal;HPM_P1;HPM_P2
2023/02/06 00:00:23;;;;;;;23.08;7.78;;;;;;;;;;4949381;28;20808;-75
2023/02/06 00:02:50;;;;;;;24.95;7.10;;;;;;;;;;4957487;28;20190;-75
2023/02/06 00:05:16;;;;;;;21.35;7.10;;;;;;;;;;4950902;28;20295;-74
2023/02/06 00:07:42;;;;;;;21.10;6.95;;;;;;;;;;4946030;28;20209;-75
2023/02/06 00:10:11;;;;;;;21.80;5.78;;;;;;;;;;4928261;29;20214;-75
2023/02/06 00:12:37;;;;;;;20.90;5.65;;;;;;;;;;4943322;29;20718;-76
2023/02/06 00:15:03;;;;;;;21.40;6.10;;;;;;;;;;4924826;29;20211;-76
2023/02/06 00:17:29;;;;;;;19.48;6.35;;;;;;;;;;4943569;28;20234;-75
2023/02/06 00:19:55;;;;;;;22.17;9.77;;;;;;;;;;4953910;28;20198;-76
2023/02/06 00:22:21;;;;;;;28.52;9.23;;;;;;;;;;4951101;28;20230;-75
2023/02/06 00:24:47;;;;;;;23.73;10.43;;;;;;;;;;4953858;28;20756;-74
2023/02/06 00:27:13;;;;;;;28.80;7.60;;;;;;;;;;4930843;29;20192;-74
2023/02/06 00:29:39;;;;;;;23.00;7.18;;;;;;;;;;4927448;28;20560;-76
2023/02/06 00:32:05;;;;;;;17.70;7.27;;;;;;;;;;4962286;28;20213;-75
2023/02/06 00:34:32;;;;;;;21.40;5.53;;;;;;;;;;4934453;28;20468;-75
2023/02/06 00:36:58;;;;;;;16.92;4.43;;;;;;;;;;4950893;28;20187;-75
2023/02/06 00:39:25;;;;;;;17.95;4.95;;;;;;;;;;4935987;28;20269;-75
2023/02/06 00:41:51;;;;;;;18.65;4.95;;;;;;;;;;4960449;28;20182;-75
2023/02/06 00:44:18;;;;;;;18.70;4.75;;;;;;;;;;4942534;28;20217;-75
2023/02/06 00:46:44;;;;;;;24.45;5.00;;;;;;;;;;4938413;28;20250;-75
2023/02/06 00:49:10;;;;;;;25.75;5.28;;;;;;;;;;4951663;28;20246;-76
2023/02/06 00:51:38;;;;;;;23.52;5.25;;;;;;;;;;4950035;28;20204;-76
2023/02/06 00:54:04;;;;;;;18.70;5.80;;;;;;;;;;4951273;28;20246;-75
2023/02/06 00:56:30;;;;;;;18.80;5.10;;;;;;;;;;4955721;28;20210;-75
2023/02/06 00:58:56;;;;;;;25.17;5.53;;;;;;;;;;4952852;28;20186;-75
2023/02/06 01:01:25;;;;;;;21.60;5.53;;;;;;;;;;4958959;28;20201;-75
2023/02/06 01:03:51;;;;;;;14.65;5.18;;;;;;;;;;4953232;28;20174;-74
2023/02/06 01:06:17;;;;;;;20.70;4.50;;;;;;;;;;4929468;29;20218;-75
2023/02/06 01:08:43;;;;;;;11.87;5.00;;;;;;;;;;4937509;29;20443;-75
2023/02/06 01:11:20;;;;;;;12.68;4.97;;;;;;;;;;4937529;28;20459;-76
2023/02/06 01:13:46;;;;;;;15.48;3.92;;;;;;;;;;4948275;28;20633;-75
2023/02/06 01:16:14;;;;;;;22.25;5.38;;;;;;;;;;4934944;29;20206;-76
2023/02/06 01:18:40;;;;;;;17.27;7.43;;;;;;;;;;4953628;28;20187;-76
2023/02/06 01:21:08;;;;;;;22.15;5.28;;;;;;;;;;4939359;28;20534;-76
2023/02/06 01:23:34;;;;;;;17.25;6.70;;;;;;;;;;4955380;28;20194;-75
2023/02/06 01:26:04;;;;;;;11.63;4.18;;;;;;;;;;4946498;28;20253;-76
2023/02/06 01:28:30;;;;;;;22.08;3.78;;;;;;;;;;4941761;28;20214;-75
2023/02/06 01:30:56;;;;;;;30.25;5.43;;;;;;;;;;4936363;28;20328;-76
2023/02/06 01:33:22;;;;;;;29.00;4.88;;;;;;;;;;4960344;28;20284;-75
2023/02/06 01:35:55;;;;;;;18.67;5.30;;;;;;;;;;4954528;28;20206;-76
2023/02/06 01:38:21;;;;;;;9.77;4.00;;;;;;;;;;4949955;28;20197;-75
2023/02/06 01:40:47;;;;;;;14.15;4.45;;;;;;;;;;4945789;28;20198;-75
2023/02/06 01:43:16;;;;;;;14.77;4.50;;;;;;;;;;4947151;28;20193;-75
2023/02/06 01:45:45;;;;;;;10.32;4.00;;;;;;;;;;4932536;28;20733;-75
2023/02/06 01:48:14;;;;;;;16.88;6.05;;;;;;;;;;4955464;28;20670;-75
2023/02/06 01:50:41;;;;;;;17.20;4.95;;;;;;;;;;4947319;28;20195;-75
2023/02/06 01:53:07;;;;;;;20.50;5.45;;;;;;;;;;4952369;28;20190;-76
2023/02/06 01:55:34;;;;;;;16.38;4.72;;;;;;;;;;4946265;28;20301;-75
2023/02/06 01:58:01;;;;;;;19.40;4.28;;;;;;;;;;4953806;28;20198;-74
2023/02/06 02:00:27;;;;;;;16.73;4.38;;;;;;;;;;4930211;28;20203;-74
2023/02/06 02:02:53;;;;;;;23.92;4.88;;;;;;;;;;4953803;28;20182;-75
2023/02/06 02:05:20;;;;;;;22.23;5.35;;;;;;;;;;4941671;28;20223;-75
2023/02/06 02:07:51;;;;;;;14.68;4.93;;;;;;;;;;4944173;28;20195;-76
2023/02/06 02:10:17;;;;;;;10.02;4.97;;;;;;;;;;4926903;28;20260;-74
2023/02/06 02:12:43;;;;;;;23.45;5.85;;;;;;;;;;4951906;28;20265;-75
2023/02/06 02:15:09;;;;;;;21.52;5.72;;;;;;;;;;4934450;28;20213;-76
2023/02/06 02:17:45;;;;;;;21.08;5.15;;;;;;;;;;4958122;28;20187;-75
2023/02/06 02:20:30;;;;;;;16.50;5.05;;;;;;;;;;4954481;28;20194;-75
2023/02/06 02:23:08;;;;;;;11.63;4.13;;;;;;;;;;4945566;28;20192;-75
2023/02/06 02:25:53;;;;;;;14.85;4.90;;;;;;;;;;4941383;28;20198;-75
2023/02/06 02:28:19;;;;;;;14.07;4.72;;;;;;;;;;4945063;28;20201;-75
2023/02/06 02:31:04;;;;;;;20.60;5.28;;;;;;;;;;4930099;29;20683;-74
2023/02/06 02:33:39;;;;;;;13.02;4.60;;;;;;;;;;4952166;28;20206;-75
2023/02/06 02:36:08;;;;;;;7.25;4.18;;;;;;;;;;4953430;28;20292;-75
2023/02/06 02:38:55;;;;;;;16.10;4.93;;;;;;;;;;4956953;28;20194;-75
2023/02/06 02:41:36;;;;;;;29.08;6.65;;;;;;;;;;4942375;28;20201;-75
2023/02/06 02:44:20;;;;;;;29.67;7.00;;;;;;;;;;4945297;28;20225;-75
2023/02/06 02:46:49;;;;;;;9.75;4.22;;;;;;;;;;4955626;28;20324;-75
2023/02/06 02:49:17;;;;;;;17.02;5.40;;;;;;;;;;4939379;28;21372;-75
2023/02/06 02:51:43;;;;;;;21.95;5.70;;;;;;;;;;4954743;28;20186;-75
2023/02/06 02:54:09;;;;;;;29.33;5.55;;;;;;;;;;4945113;28;20191;-76
2023/02/06 02:56:35;;;;;;;21.50;5.22;;;;;;;;;;4948763;28;20192;-76
2023/02/06 02:59:07;;;;;;;20.85;5.68;;;;;;;;;;4952532;28;20280;-75
2023/02/06 03:01:42;;;;;;;27.65;6.22;;;;;;;;;;4956945;28;20187;-75
2023/02/06 03:04:12;;;;;;;10.73;5.60;;;;;;;;;;4952365;28;20182;-75
2023/02/06 03:06:50;;;;;;;11.98;5.95;;;;;;;;;;4964871;28;20201;-76
2023/02/06 03:09:34;;;;;;;13.20;5.35;;;;;;;;;;4943352;28;20194;-75
2023/02/06 03:12:11;;;;;;;32.10;6.25;;;;;;;;;;4954218;28;20180;-75
2023/02/06 03:14:45;;;;;;;26.17;7.10;;;;;;;;;;4947299;28;20210;-75
2023/02/06 03:17:14;;;;;;;23.63;5.82;;;;;;;;;;4951163;28;20186;-76
2023/02/06 03:19:43;;;;;;;13.50;5.75;;;;;;;;;;4949223;28;20195;-76
2023/02/06 03:22:10;;;;;;;15.00;4.53;;;;;;;;;;4940621;28;20237;-75
2023/02/06 03:24:38;;;;;;;16.08;5.40;;;;;;;;;;4947137;28;20272;-75
2023/02/06 03:27:06;;;;;;;13.57;6.00;;;;;;;;;;4947118;28;20190;-75
2023/02/06 03:29:33;;;;;;;23.73;6.80;;;;;;;;;;4951116;28;20187;-75
2023/02/06 03:32:10;;;;;;;26.45;6.05;;;;;;;;;;4955778;28;20631;-76
2023/02/06 03:34:39;;;;;;;20.50;6.32;;;;;;;;;;4952826;28;20211;-76
2023/02/06 03:37:06;;;;;;;17.90;5.72;;;;;;;;;;4955978;28;20178;-76
2023/02/06 03:39:32;;;;;;;25.13;6.38;;;;;;;;;;4944923;28;20285;-76
2023/02/06 03:41:58;;;;;;;17.13;5.85;;;;;;;;;;4956382;28;20249;-76
2023/02/06 03:44:27;;;;;;;19.08;5.88;;;;;;;;;;4946884;28;20206;-76
2023/02/06 03:46:54;;;;;;;17.70;6.05;;;;;;;;;;4948463;29;20187;-76
2023/02/06 03:49:22;;;;;;;20.17;5.43;;;;;;;;;;4934144;29;20191;-76
2023/02/06 03:51:51;;;;;;;28.80;7.38;;;;;;;;;;4947026;28;20260;-76
2023/02/06 03:54:19;;;;;;;15.70;5.78;;;;;;;;;;4951336;28;20231;-76
2023/02/06 03:56:48;;;;;;;17.65;6.18;;;;;;;;;;4955417;28;20205;-75
2023/02/06 03:59:14;;;;;;;23.38;6.65;;;;;;;;;;4949173;28;20944;-76
2023/02/06 04:01:43;;;;;;;9.05;4.70;;;;;;;;;;4949190;28;20198;-75
2023/02/06 04:04:09;;;;;;;14.05;6.30;;;;;;;;;;4946477;28;20186;-76
2023/02/06 04:06:35;;;;;;;21.50;6.18;;;;;;;;;;4955537;28;20258;-75
2023/02/06 04:09:01;;;;;;;26.65;7.15;;;;;;;;;;4951421;28;20185;-75
2023/02/06 04:11:27;;;;;;;15.90;9.63;;;;;;;;;;4965161;28;20189;-76
2023/02/06 04:13:53;;;;;;;17.00;7.57;;;;;;;;;;4945589;28;20901;-75
2023/02/06 04:16:19;;;;;;;14.10;6.15;;;;;;;;;;4940356;28;20558;-76
2023/02/06 04:18:45;;;;;;;21.60;6.93;;;;;;;;;;4958168;28;20277;-76
2023/02/06 04:21:11;;;;;;;28.67;9.67;;;;;;;;;;4945570;28;20619;-76
2023/02/06 04:23:37;;;;;;;31.50;7.45;;;;;;;;;;4965588;28;20421;-76
2023/02/06 04:26:03;;;;;;;31.60;8.20;;;;;;;;;;4943336;28;20930;-76
2023/02/06 04:28:29;;;;;;;26.40;9.52;;;;;;;;;;4936812;29;20416;-76
2023/02/06 04:30:55;;;;;;;21.23;8.18;;;;;;;;;;4944956;28;20205;-76
2023/02/06 04:33:21;;;;;;;20.70;6.03;;;;;;;;;;4957215;28;20272;-76
2023/02/06 04:35:48;;;;;;;19.60;6.97;;;;;;;;;;4950985;28;20507;-76
2023/02/06 04:38:14;;;;;;;48.78;8.73;;;;;;;;;;4951983;28;20248;-76
2023/02/06 04:40:40;;;;;;;24.77;7.75;;;;;;;;;;4960697;28;20196;-76
2023/02/06 04:43:06;;;;;;;18.42;8.00;;;;;;;;;;4957633;28;20193;-76
2023/02/06 04:45:32;;;;;;;40.07;8.60;;;;;;;;;;4936701;28;20601;-75
2023/02/06 04:47:58;;;;;;;38.40;9.43;;;;;;;;;;4952261;28;21389;-76
2023/02/06 04:50:24;;;;;;;23.15;8.20;;;;;;;;;;4956889;28;20434;-77
2023/02/06 04:52:53;;;;;;;44.50;8.98;;;;;;;;;;4952736;28;20198;-76
2023/02/06 04:55:19;;;;;;;18.58;7.10;;;;;;;;;;4950416;28;20586;-76
2023/02/06 04:57:45;;;;;;;31.73;7.80;;;;;;;;;;4961637;28;20194;-77
2023/02/06 05:00:12;;;;;;;31.60;6.33;;;;;;;;;;4937627;28;20416;-76
2023/02/06 05:02:38;;;;;;;57.97;9.45;;;;;;;;;;4947337;28;20440;-75
2023/02/06 05:05:05;;;;;;;28.50;6.72;;;;;;;;;;4949213;28;20669;-76
2023/02/06 05:07:31;;;;;;;29.50;7.28;;;;;;;;;;4946349;28;20187;-75
2023/02/06 05:09:57;;;;;;;25.23;7.60;;;;;;;;;;4946162;28;20217;-77
2023/02/06 05:12:23;;;;;;;31.40;6.43;;;;;;;;;;4951734;28;20421;-75
2023/02/06 05:14:49;;;;;;;25.45;7.45;;;;;;;;;;4950678;28;20337;-76
2023/02/06 05:17:15;;;;;;;40.90;7.55;;;;;;;;;;4957064;28;20272;-76
2023/02/06 05:19:41;;;;;;;15.80;7.30;;;;;;;;;;4938700;28;20271;-75
2023/02/06 05:22:07;;;;;;;24.30;7.07;;;;;;;;;;4939266;28;20195;-76
2023/02/06 05:24:33;;;;;;;18.80;7.03;;;;;;;;;;4951507;28;20209;-76
2023/02/06 05:26:59;;;;;;;31.20;8.53;;;;;;;;;;4959548;28;20437;-75
2023/02/06 05:29:25;;;;;;;30.70;8.25;;;;;;;;;;4953059;28;20748;-75
2023/02/06 05:31:51;;;;;;;20.60;8.30;;;;;;;;;;4959758;28;20220;-75
2023/02/06 05:34:17;;;;;;;11.33;7.67;;;;;;;;;;4949684;28;20455;-75
2023/02/06 05:36:43;;;;;;;17.10;8.03;;;;;;;;;;4953095;28;20496;-75
2023/02/06 05:39:09;;;;;;;9.60;7.22;;;;;;;;;;4958224;28;20947;-75
2023/02/06 05:41:35;;;;;;;22.47;7.30;;;;;;;;;;4962017;28;20562;-76
2023/02/06 05:44:01;;;;;;;33.92;8.32;;;;;;;;;;4940620;28;20471;-75
2023/02/06 05:46:27;;;;;;;39.58;10.00;;;;;;;;;;4944613;28;20622;-76
2023/02/06 05:48:53;;;;;;;29.75;8.13;;;;;;;;;;4939212;28;20302;-76
2023/02/06 05:51:19;;;;;;;15.13;7.17;;;;;;;;;;4946253;28;20222;-77
2023/02/06 05:53:45;;;;;;;36.23;7.43;;;;;;;;;;4958260;28;20408;-76
2023/02/06 05:56:11;;;;;;;22.60;9.17;;;;;;;;;;4951501;28;20486;-75
2023/02/06 05:58:37;;;;;;;46.85;9.70;;;;;;;;;;4947269;28;20520;-75
2023/02/06 06:01:03;;;;;;;21.20;9.50;;;;;;;;;;4944894;28;20630;-77
2023/02/06 06:03:29;;;;;;;17.58;7.80;;;;;;;;;;4953053;28;20582;-75
2023/02/06 06:05:55;;;;;;;22.40;8.63;;;;;;;;;;4936638;29;20203;-76
2023/02/06 06:08:21;;;;;;;14.18;7.90;;;;;;;;;;4950521;28;20809;-74
2023/02/06 06:10:51;;;;;;;13.65;8.38;;;;;;;;;;4931022;28;20238;-74
2023/02/06 06:13:17;;;;;;;18.70;7.25;;;;;;;;;;4938328;29;20184;-77
2023/02/06 06:15:43;;;;;;;18.63;7.80;;;;;;;;;;4940965;28;20555;-77
2023/02/06 06:18:09;;;;;;;16.98;8.82;;;;;;;;;;4951114;28;20429;-76
2023/02/06 06:20:36;;;;;;;17.05;9.88;;;;;;;;;;4940489;28;20700;-75
2023/02/06 06:23:02;;;;;;;21.73;9.93;;;;;;;;;;4950504;28;20258;-76
2023/02/06 06:25:28;;;;;;;19.95;8.20;;;;;;;;;;4951328;28;20214;-75
2023/02/06 06:27:54;;;;;;;16.85;8.88;;;;;;;;;;4962183;28;20601;-77
2023/02/06 06:30:20;;;;;;;18.55;8.50;;;;;;;;;;4960215;28;20221;-77
2023/02/06 06:32:46;;;;;;;18.00;8.87;;;;;;;;;;4946530;28;20229;-76
2023/02/06 06:35:11;;;;;;;13.60;7.33;;;;;;;;;;4937377;28;20976;-75
2023/02/06 06:37:37;;;;;;;20.43;9.17;;;;;;;;;;4944978;28;20460;-76
2023/02/06 06:40:04;;;;;;;25.13;9.97;;;;;;;;;;4949692;28;20995;-76
2023/02/06 06:42:30;;;;;;;16.75;8.25;;;;;;;;;;4937066;28;20476;-75
2023/02/06 06:44:56;;;;;;;21.80;10.77;;;;;;;;;;4954699;28;20221;-76
2023/02/06 06:47:22;;;;;;;15.47;9.93;;;;;;;;;;4954144;28;20556;-76
2023/02/06 06:49:47;;;;;;;25.75;10.65;;;;;;;;;;4918242;29;20463;-76
2023/02/06 06:52:14;;;;;;;28.93;10.90;;;;;;;;;;4933385;29;20677;-75
2023/02/06 06:54:40;;;;;;;15.98;10.32;;;;;;;;;;4946397;28;20469;-78
2023/02/06 06:57:06;;;;;;;33.42;10.98;;;;;;;;;;4958305;28;20187;-74
2023/02/06 06:59:32;;;;;;;27.13;10.75;;;;;;;;;;4951861;28;20253;-76
2023/02/06 07:01:58;;;;;;;21.45;9.50;;;;;;;;;;4963948;28;20716;-75
2023/02/06 07:04:28;;;;;;;34.13;10.40;;;;;;;;;;4940774;28;20327;-76
2023/02/06 07:06:54;;;;;;;21.77;9.63;;;;;;;;;;4955993;28;20434;-76
2023/02/06 07:09:20;;;;;;;35.10;11.75;;;;;;;;;;4953414;28;20193;-76
2023/02/06 07:11:46;;;;;;;30.50;12.40;;;;;;;;;;4964065;28;20193;-76
2023/02/06 07:14:12;;;;;;;25.37;11.60;;;;;;;;;;4947558;28;20438;-76
2023/02/06 07:16:38;;;;;;;31.98;11.73;;;;;;;;;;4929681;29;20438;-75
2023/02/06 07:19:04;;;;;;;39.13;10.70;;;;;;;;;;4944100;28;20476;-75
2023/02/06 07:21:30;;;;;;;29.08;12.20;;;;;;;;;;4929026;29;20536;-75
2023/02/06 07:23:56;;;;;;;25.60;10.43;;;;;;;;;;4946796;28;20200;-76
2023/02/06 07:26:22;;;;;;;30.03;11.27;;;;;;;;;;4954547;28;20846;-76
2023/02/06 07:28:48;;;;;;;40.58;12.55;;;;;;;;;;4955101;28;20680;-77
2023/02/06 07:31:14;;;;;;;18.95;8.75;;;;;;;;;;4954740;28;20237;-75
2023/02/06 07:33:40;;;;;;;25.83;10.13;;;;;;;;;;4962465;28;20212;-76
2023/02/06 07:36:11;;;;;;;23.65;10.32;;;;;;;;;;4955601;28;20714;-75
2023/02/06 07:38:37;;;;;;;25.63;12.40;;;;;;;;;;4948314;28;20182;-76
2023/02/06 07:41:03;;;;;;;31.70;11.73;;;;;;;;;;4957099;28;20569;-76
2023/02/06 07:43:29;;;;;;;36.75;13.82;;;;;;;;;;4958366;28;20508;-75
2023/02/06 07:45:59;;;;;;;36.22;12.27;;;;;;;;;;4945440;28;20219;-77
2023/02/06 07:48:25;;;;;;;36.33;12.65;;;;;;;;;;4943417;28;20635;-77
2023/02/06 07:50:51;;;;;;;36.08;13.60;;;;;;;;;;4956976;28;20681;-76
2023/02/06 07:53:17;;;;;;;37.03;16.42;;;;;;;;;;4951357;28;20205;-75
2023/02/06 07:55:43;;;;;;;39.50;12.30;;;;;;;;;;4955331;28;20206;-76
2023/02/06 07:58:12;;;;;;;30.33;10.37;;;;;;;;;;4943598;28;20521;-75
2023/02/06 08:00:39;;;;;;;44.88;15.07;;;;;;;;;;4946766;28;20466;-76
2023/02/06 08:03:06;;;;;;;32.53;12.73;;;;;;;;;;4950334;28;20183;-78
2023/02/06 08:05:32;;;;;;;35.72;12.93;;;;;;;;;;4950193;28;20194;-76
2023/02/06 08:07:58;;;;;;;34.67;12.73;;;;;;;;;;4930736;28;20233;-76
2023/02/06 08:10:24;;;;;;;30.53;12.23;;;;;;;;;;4958101;28;20202;-75
2023/02/06 08:12:50;;;;;;;43.00;13.93;;;;;;;;;;4930822;29;20441;-78
2023/02/06 08:15:16;;;;;;;30.50;11.57;;;;;;;;;;4948763;28;20215;-76
2023/02/06 08:17:42;;;;;;;24.15;11.70;;;;;;;;;;4952736;28;20551;-76
2023/02/06 08:20:09;;;;;;;36.63;10.50;;;;;;;;;;4943792;28;20226;-75
2023/02/06 08:22:35;;;;;;;39.92;14.00;;;;;;;;;;4949270;28;20573;-77
2023/02/06 08:25:01;;;;;;;36.95;11.88;;;;;;;;;;4953308;28;20213;-76
2023/02/06 08:27:27;;;;;;;34.70;12.93;;;;;;;;;;4957301;28;20269;-76
2023/02/06 08:29:56;;;;;;;29.73;11.93;;;;;;;;;;4935997;28;20203;-76
2023/02/06 08:32:22;;;;;;;35.30;12.70;;;;;;;;;;4960311;28;20182;-76
2023/02/06 08:34:48;;;;;;;66.88;14.27;;;;;;;;;;4950617;28;20296;-75
2023/02/06 08:37:14;;;;;;;50.65;17.27;;;;;;;;;;4943902;28;20183;-76
2023/02/06 08:39:40;;;;;;;35.67;13.70;;;;;;;;;;4946412;28;20197;-77
2023/02/06 08:42:06;;;;;;;26.50;12.68;;;;;;;;;;4959893;28;20791;-76
2023/02/06 08:44:32;;;;;;;45.75;14.85;;;;;;;;;;4930493;28;20209;-76
2023/02/06 08:46:58;;;;;;;49.23;13.37;;;;;;;;;;4936906;28;20198;-75
2023/02/06 08:49:27;;;;;;;40.47;12.57;;;;;;;;;;4953368;28;20442;-75
2023/02/06 08:51:53;;;;;;;30.70;12.77;;;;;;;;;;4925189;29;20538;-75
2023/02/06 08:54:21;;;;;;;34.20;13.65;;;;;;;;;;4926296;28;20214;-76
2023/02/06 08:56:47;;;;;;;32.97;11.70;;;;;;;;;;4946542;28;20192;-77
2023/02/06 08:59:14;;;;;;;43.13;13.63;;;;;;;;;;4944104;28;20194;-75
2023/02/06 09:01:40;;;;;;;25.45;10.57;;;;;;;;;;4949380;28;20282;-75
2023/02/06 09:04:10;;;;;;;39.53;13.40;;;;;;;;;;4949543;28;20226;-76
2023/02/06 09:06:37;;;;;;;34.67;14.88;;;;;;;;;;4947916;28;20230;-76
2023/02/06 09:09:04;;;;;;;33.53;13.63;;;;;;;;;;4940472;28;20614;-76
2023/02/06 09:11:30;;;;;;;30.57;12.93;;;;;;;;;;4924114;28;20669;-75
2023/02/06 09:13:57;;;;;;;30.80;13.65;;;;;;;;;;4937480;28;20443;-77
2023/02/06 09:16:24;;;;;;;27.52;12.60;;;;;;;;;;4953297;28;20217;-75
2023/02/06 09:18:52;;;;;;;27.63;11.90;;;;;;;;;;4944955;28;20276;-76
2023/02/06 09:21:20;;;;;;;23.10;10.15;;;;;;;;;;4951751;28;20202;-75
2023/02/06 09:23:50;;;;;;;24.90;10.90;;;;;;;;;;4945995;28;20465;-75
2023/02/06 09:26:18;;;;;;;22.80;9.93;;;;;;;;;;4931349;28;20370;-76
2023/02/06 09:28:44;;;;;;;25.08;11.07;;;;;;;;;;4950638;28;20566;-76
2023/02/06 09:31:11;;;;;;;21.83;10.30;;;;;;;;;;4947569;28;20356;-76
2023/02/06 09:33:37;;;;;;;22.05;9.80;;;;;;;;;;4951251;28;20564;-76
2023/02/06 09:36:05;;;;;;;26.92;11.75;;;;;;;;;;4952338;28;20218;-78
2023/02/06 09:38:31;;;;;;;16.05;9.50;;;;;;;;;;4952249;28;20202;-77
2023/02/06 09:41:02;;;;;;;26.90;11.95;;;;;;;;;;4948428;28;20745;-76
2023/02/06 09:43:31;;;;;;;26.40;10.43;;;;;;;;;;4947033;28;20186;-77
2023/02/06 09:45:59;;;;;;;29.27;13.65;;;;;;;;;;4904570;29;20212;-75
2023/02/06 09:48:28;;;;;;;27.52;11.85;;;;;;;;;;4918820;29;20227;-75
2023/02/06 09:51:00;;;;;;;31.70;12.20;;;;;;;;;;4915483;29;20724;-76
2023/02/06 09:53:37;;;;;;;23.23;11.90;;;;;;;;;;4909500;29;20215;-75
2023/02/06 09:56:22;;;;;;;26.55;11.57;;;;;;;;;;4909139;29;20613;-76
2023/02/06 09:59:09;;;;;;;23.58;11.15;;;;;;;;;;4908181;29;20814;-75
2023/02/06 10:01:42;;;;;;;22.48;9.85;;;;;;;;;;4915054;29;20198;-75
2023/02/06 10:04:27;;;;;;;26.17;10.10;;;;;;;;;;4908450;29;20204;-75
2023/02/06 10:07:04;;;;;;;25.27;9.60;;;;;;;;;;4905174;29;20531;-76
2023/02/06 10:09:30;;;;;;;16.67;10.27;;;;;;;;;;4899154;29;20454;-75
2023/02/06 10:12:02;;;;;;;27.63;11.10;;;;;;;;;;4915173;29;20439;-75
2023/02/06 10:14:44;;;;;;;24.58;10.68;;;;;;;;;;4907130;29;20475;-75
2023/02/06 10:17:21;;;;;;;28.00;10.82;;;;;;;;;;4904501;29;20188;-76
2023/02/06 10:19:48;;;;;;;22.10;9.30;;;;;;;;;;4899690;29;20192;-75
2023/02/06 10:22:19;;;;;;;28.42;11.55;;;;;;;;;;4911507;29;20446;-75
2023/02/06 10:24:53;;;;;;;29.50;10.70;;;;;;;;;;4905765;29;20743;-75
2023/02/06 10:27:19;;;;;;;24.38;11.02;;;;;;;;;;4903079;29;20611;-76
2023/02/06 10:29:47;;;;;;;25.30;12.40;;;;;;;;;;4907578;29;20200;-74
2023/02/06 10:32:27;;;;;;;26.05;10.68;;;;;;;;;;4921109;29;20338;-76
2023/02/06 10:35:12;;;;;;;34.25;11.90;;;;;;;;;;4915827;29;20229;-76
2023/02/06 10:37:38;;;;;;;28.35;12.35;;;;;;;;;;4917842;29;20266;-77
2023/02/06 10:40:23;;;;;;;25.93;10.57;;;;;;;;;;4904811;29;20332;-77
2023/02/06 10:42:52;;;;;;;28.05;10.95;;;;;;;;;;4917213;29;20487;-75
2023/02/06 10:45:28;;;;;;;30.38;11.75;;;;;;;;;;4936850;28;20222;-77
2023/02/06 10:47:58;;;;;;;24.92;11.85;;;;;;;;;;4953354;28;20195;-75
2023/02/06 10:50:27;;;;;;;24.88;10.82;;;;;;;;;;4946418;28;20206;-77
2023/02/06 10:52:55;;;;;;;24.17;10.45;;;;;;;;;;4952518;28;20218;-76
2023/02/06 10:55:43;;;;;;;26.43;13.00;;;;;;;;;;4929033;29;20222;-76
2023/02/06 10:58:32;;;;;;;28.05;11.10;;;;;;;;;;4948365;28;20445;-78
2023/02/06 11:00:59;;;;;;;32.40;13.23;;;;;;;;;;4912534;28;20623;-78
2023/02/06 11:03:29;;;;;;;24.52;10.45;;;;;;;;;;4948867;28;20202;-77
2023/02/06 11:05:55;;;;;;;25.47;10.13;;;;;;;;;;4958745;28;20195;-77
2023/02/06 11:08:27;;;;;;;28.23;11.68;;;;;;;;;;4932183;29;20473;-77
2023/02/06 11:10:53;;;;;;;33.13;24.83;;;;;;;;;;4952474;28;20348;-76
2023/02/06 11:13:30;;;;;;;23.30;9.70;;;;;;;;;;4953727;28;20178;-77
2023/02/06 11:16:08;;;;;;;27.90;11.37;;;;;;;;;;4954729;28;20474;-77
2023/02/06 11:18:36;;;;;;;24.13;11.20;;;;;;;;;;4926499;29;20445;-77
2023/02/06 11:21:02;;;;;;;23.50;11.23;;;;;;;;;;4947136;28;20526;-77
2023/02/06 11:23:29;;;;;;;23.67;11.15;;;;;;;;;;4955073;28;20939;-77
2023/02/06 11:26:09;;;;;;;23.27;11.10;;;;;;;;;;4943953;28;20741;-77
2023/02/06 11:28:37;;;;;;;25.85;10.77;;;;;;;;;;4954304;28;20798;-77
2023/02/06 11:31:07;;;;;;;27.13;11.35;;;;;;;;;;4945133;28;20190;-76
2023/02/06 11:33:54;;;;;;;18.50;9.85;;;;;;;;;;4950591;28;20242;-77
2023/02/06 11:36:30;;;;;;;24.97;11.23;;;;;;;;;;4948558;28;20296;-77
2023/02/06 11:39:20;;;;;;;26.80;10.40;;;;;;;;;;4938095;28;20956;-76
2023/02/06 11:42:02;;;;;;;21.07;9.57;;;;;;;;;;4948712;28;20453;-79
2023/02/06 11:44:35;;;;;;;31.00;11.30;;;;;;;;;;4951543;28;20995;-77
2023/02/06 11:47:33;;;;;;;16.70;9.80;;;;;;;;;;4954178;28;20449;-75
2023/02/06 11:50:21;;;;;;;24.33;12.40;;;;;;;;;;4907356;28;20961;-77
2023/02/06 11:52:47;;;;;;;19.60;10.20;;;;;;;;;;4923741;29;20441;-76
2023/02/06 11:55:24;;;;;;;36.17;11.03;;;;;;;;;;4954362;28;20488;-79
2023/02/06 11:58:05;;;;;;;21.47;9.03;;;;;;;;;;4949801;28;20548;-79
2023/02/06 12:00:31;;;;;;;16.17;9.37;;;;;;;;;;4948176;28;20437;-78
2023/02/06 12:02:57;;;;;;;18.67;8.32;;;;;;;;;;4947146;28;20461;-79
2023/02/06 12:05:30;;;;;;;17.80;9.40;;;;;;;;;;4934094;29;20194;-77
2023/02/06 12:08:01;;;;;;;22.55;10.30;;;;;;;;;;4950586;28;20436;-76
2023/02/06 12:10:30;;;;;;;24.07;10.90;;;;;;;;;;4945670;28;20194;-77
2023/02/06 12:12:59;;;;;;;17.57;9.40;;;;;;;;;;4946523;28;20936;-78
2023/02/06 12:15:31;;;;;;;17.05;9.73;;;;;;;;;;4949549;28;20476;-78
2023/02/06 12:18:00;;;;;;;17.13;8.23;;;;;;;;;;4931739;28;20214;-77
2023/02/06 12:20:33;;;;;;;26.70;10.17;;;;;;;;;;4948953;28;20438;-78
2023/02/06 12:23:05;;;;;;;19.60;9.33;;;;;;;;;;4946706;28;20534;-77
2023/02/06 12:25:36;;;;;;;22.60;10.23;;;;;;;;;;4946198;28;20859;-80
2023/02/06 12:28:25;;;;;;;15.17;7.03;;;;;;;;;;4946180;28;20405;-77
2023/02/06 12:30:56;;;;;;;12.10;7.20;;;;;;;;;;4913303;28;20440;-77
2023/02/06 12:33:35;;;;;;;17.35;7.47;;;;;;;;;;4947217;28;20476;-78
2023/02/06 12:36:14;;;;;;;15.07;6.78;;;;;;;;;;4939449;28;20274;-77
2023/02/06 12:38:47;;;;;;;10.90;6.78;;;;;;;;;;4945922;28;20209;-79
2023/02/06 12:41:21;;;;;;;15.45;6.75;;;;;;;;;;4941511;28;20279;-77
2023/02/06 12:43:50;;;;;;;16.52;7.63;;;;;;;;;;4930102;28;20193;-77
2023/02/06 12:46:19;;;;;;;18.30;10.47;;;;;;;;;;4930190;28;20636;-76
2023/02/06 12:48:45;;;;;;;22.13;9.13;;;;;;;;;;4936862;28;20572;-77
2023/02/06 12:51:31;;;;;;;16.10;9.30;;;;;;;;;;4953024;28;20909;-77
2023/02/06 12:53:57;;;;;;;15.70;9.80;;;;;;;;;;4908120;28;20441;-77
2023/02/06 12:56:26;;;;;;;23.27;11.15;;;;;;;;;;4956809;28;20477;-78
2023/02/06 12:59:01;;;;;;;29.17;12.40;;;;;;;;;;4958842;28;20204;-79
2023/02/06 13:01:27;;;;;;;30.40;12.30;;;;;;;;;;4946676;28;20454;-77
2023/02/06 13:04:04;;;;;;;20.20;10.40;;;;;;;;;;4933170;28;20968;-76
2023/02/06 13:06:36;;;;;;;28.00;12.00;;;;;;;;;;4960597;28;20440;-76
2023/02/06 13:09:04;;;;;;;27.48;12.25;;;;;;;;;;4946796;28;20686;-77
2023/02/06 13:11:37;;;;;;;29.33;14.07;;;;;;;;;;4942891;28;20277;-77
2023/02/06 13:14:15;;;;;;;42.30;18.10;;;;;;;;;;4955080;28;20197;-78
2023/02/06 13:16:43;;;;;;;33.87;14.60;;;;;;;;;;4946431;28;20539;-78
2023/02/06 13:19:19;;;;;;;32.80;13.98;;;;;;;;;;4961568;28;20441;-74
2023/02/06 13:21:50;;;;;;;33.10;13.87;;;;;;;;;;4943047;28;20209;-77
2023/02/06 13:24:17;;;;;;;22.00;12.10;;;;;;;;;;4947731;28;21043;-77
2023/02/06 13:26:47;;;;;;;24.57;12.43;;;;;;;;;;4922408;29;20965;-77
2023/02/06 13:29:26;;;;;;;33.33;12.32;;;;;;;;;;4947845;28;21018;-76
2023/02/06 13:32:11;;;;;;;32.72;13.23;;;;;;;;;;4947124;28;20208;-77
2023/02/06 13:34:40;;;;;;;23.90;11.80;;;;;;;;;;4948520;28;20580;-77
2023/02/06 13:37:26;;;;;;;31.70;14.50;;;;;;;;;;4937828;29;20450;-77
2023/02/06 13:40:11;;;;;;;32.90;12.40;;;;;;;;;;4945766;28;20567;-78
2023/02/06 13:42:37;;;;;;;23.57;13.53;;;;;;;;;;4952467;28;20533;-77
2023/02/06 13:45:05;;;;;;;40.60;15.07;;;;;;;;;;4946854;28;21081;-77
2023/02/06 13:47:46;;;;;;;41.22;15.00;;;;;;;;;;4947357;28;20183;-77
2023/02/06 13:50:21;;;;;;;43.70;18.07;;;;;;;;;;4950812;28;20567;-78
2023/02/06 13:52:47;;;;;;;30.43;13.67;;;;;;;;;;4956200;28;20451;-77
2023/02/06 13:55:37;;;;;;;28.07;13.90;;;;;;;;;;4933945;28;20473;-77
2023/02/06 13:58:03;;;;;;;42.70;17.47;;;;;;;;;;4956082;28;20441;-77
2023/02/06 14:00:31;;;;;;;30.90;15.27;;;;;;;;;;4949143;28;20856;-77
2023/02/06 14:03:12;;;;;;;41.17;17.20;;;;;;;;;;4956726;28;20444;-77
2023/02/06 14:05:54;;;;;;;28.50;15.77;;;;;;;;;;4951439;28;20922;-77
2023/02/06 14:08:39;;;;;;;34.60;14.80;;;;;;;;;;4937346;28;20813;-78
2023/02/06 14:11:12;;;;;;;34.10;16.70;;;;;;;;;;4945601;28;20442;-77
2023/02/06 14:13:58;;;;;;;34.20;15.33;;;;;;;;;;4949278;28;20476;-77
2023/02/06 14:16:43;;;;;;;31.75;15.02;;;;;;;;;;4949796;28;20501;-77
2023/02/06 14:19:09;;;;;;;30.02;14.50;;;;;;;;;;4965574;28;20193;-77
2023/02/06 14:21:52;;;;;;;34.27;15.07;;;;;;;;;;4952896;28;20209;-76
2023/02/06 14:24:18;;;;;;;35.30;16.15;;;;;;;;;;4954158;28;20548;-77
2023/02/06 14:26:59;;;;;;;30.60;15.80;;;;;;;;;;4960869;28;20196;-76
2023/02/06 14:29:44;;;;;;;43.97;18.27;;;;;;;;;;4951607;28;20198;-76
2023/02/06 14:32:16;;;;;;;33.58;17.15;;;;;;;;;;4959040;28;20441;-76
2023/02/06 14:34:54;;;;;;;36.25;18.15;;;;;;;;;;4946858;28;20832;-75
2023/02/06 14:37:26;;;;;;;33.07;16.17;;;;;;;;;;4952144;28;20260;-76